Accueil
METAR-TAF:

METAR-TAF

Aéroports :

Base aérienne

Landivisiau, France

latitude: 48-31N, longitude: 004-09W, altitude: 106 m

Observation

Le bulletin a été fait il y a 24 minutes, à 22:30 UTC
Vent 8 kt de nord
Température 14°C
Humidité 100%
Pression 1024 hPa
Visibilité: 2900 m
Ciel couvert à une hauteur de 200 ft
bruine, brume

METAR: LFRJ 202230Z AUTO 35008KT 2900 DZ BR OVC002 14/14 Q1024

Heure: 00:54 (22:54 UTC)

Prévision

Le bulletin a été fait il y a 3 heures et 38 minutes, à 19:16 UTC
Prévision valable du 20 à 19 UTC au 21 à 03 UTC
Vent 10 kt de nord
Visibilité: 1200 m
Nuages fragmentés à une hauteur de 300 ft
brume
Temporairement
du 20 à 19 UTC au 21 à 03 UTC
Visibilité: 0400 m
brouillard

TAF: LFRJ 201916Z 2019/2103 35010KT 1200 BR BKN003 TEMPO 2019/2103 0400 FG VV///

Observations et prévisions météorologiques de plus de 4000 aéroports (messages METAR et TAF).

Les stations disponibles sont représentées par des disques jaunes et rouges sur la carte.

Passer la souris dessus pour voir le nom de la station.

Cliquer dessus pour voir les observations et prévisions météorologiques.

Pour changer de carte: cliquez sur les boutons verts avec une croix noire pour zoomer, sur le bouton vert avec un tiret pour effectuer un zoom arrière, ou sur les flèches vertes pour les cartes adjacentes.


METAR-TAF: